Time;durP1;ratioP1;P1;durP2;ratioP2;P2;SDS_P1;SDS_P2;PMS_P1;PMS_P2;Temp;Humidity;BMP_temperature;BMP_pressure;BME280_temperature;BME280_humidity;BME280_pressure;Samples;Min_cycle;Max_cycle;Signal;HPM_P1;HPM_P2
2022/08/04 00:02:52;;;;;;;20.90;14.95;;;;;;;16.94;100.00;101898.78;4916879;29;20047;-76
2022/08/04 00:05:37;;;;;;;22.75;15.32;;;;;;;16.96;100.00;101899.47;4886689;29;20196;-75
2022/08/04 00:08:33;;;;;;;19.92;15.00;;;;;;;16.96;100.00;101896.75;4915967;29;20126;-74
2022/08/04 00:10:59;;;;;;;21.38;15.68;;;;;;;16.87;100.00;101884.38;4899504;29;20067;-77
2022/08/04 00:13:29;;;;;;;23.85;16.45;;;;;;;16.94;100.00;101893.41;4915512;29;20036;-76
2022/08/04 00:16:04;;;;;;;19.65;14.60;;;;;;;17.03;100.00;101907.66;4916363;29;20138;-78
2022/08/04 00:18:44;;;;;;;20.63;13.82;;;;;;;17.12;100.00;101905.78;4919368;29;20032;-76
2022/08/04 00:21:12;;;;;;;22.65;15.88;;;;;;;17.19;100.00;101909.41;4919790;29;20067;-76
2022/08/04 00:23:41;;;;;;;24.40;15.77;;;;;;;17.23;99.74;101913.44;4902621;29;20032;-77
2022/08/04 00:26:08;;;;;;;18.75;13.52;;;;;;;17.26;99.31;101913.06;4919848;29;20075;-77
2022/08/04 00:28:37;;;;;;;19.38;14.52;;;;;;;17.24;99.46;101898.94;4919769;29;20054;-75
2022/08/04 00:31:04;;;;;;;20.30;13.73;;;;;;;17.24;99.20;101904.34;4919238;29;20075;-75
2022/08/04 00:33:31;;;;;;;22.73;15.75;;;;;;;17.22;99.39;101895.59;4919882;29;20036;-77
2022/08/04 00:35:58;;;;;;;21.45;14.02;;;;;;;17.16;99.34;101901.69;4917863;29;20079;-75
2022/08/04 00:38:25;;;;;;;20.25;13.32;;;;;;;17.13;99.58;101910.13;4919411;29;20050;-76
2022/08/04 00:41:08;;;;;;;28.02;15.98;;;;;;;17.09;100.00;101900.75;4901598;29;20048;-77
2022/08/04 00:44:00;;;;;;;21.55;13.88;;;;;;;17.04;100.00;101903.94;4902006;29;20035;-75
2022/08/04 00:46:47;;;;;;;32.70;14.13;;;;;;;16.98;100.00;101905.50;4873583;29;20051;-73
2022/08/04 00:49:31;;;;;;;29.83;14.60;;;;;;;16.92;100.00;101902.69;4918479;29;20040;-74
2022/08/04 00:52:12;;;;;;;28.92;15.93;;;;;;;16.83;100.00;101904.59;4921136;29;20047;-73
2022/08/04 00:55:02;;;;;;;23.00;14.43;;;;;;;16.76;100.00;101906.28;4919134;29;20091;-75
2022/08/04 00:57:56;;;;;;;26.48;14.90;;;;;;;16.74;100.00;101908.31;4920510;29;20028;-75
2022/08/04 01:00:22;;;;;;;29.27;15.13;;;;;;;16.64;100.00;101902.28;4918690;29;20075;-76
2022/08/04 01:02:59;;;;;;;23.33;15.20;;;;;;;16.63;100.00;101895.22;4920163;29;20084;-76
2022/08/04 01:06:06;;;;;;;26.27;16.17;;;;;;;16.61;100.00;101908.84;4922553;29;20039;-77
2022/08/04 01:08:45;;;;;;;28.80;15.77;;;;;;;16.57;100.00;101901.31;4900523;29;20063;-75
2022/08/04 01:11:21;;;;;;;24.42;14.68;;;;;;;16.54;100.00;101904.34;4918496;29;20039;-74
2022/08/04 01:14:11;;;;;;;23.05;14.82;;;;;;;16.52;100.00;101896.44;4918487;29;20095;-74
2022/08/04 01:16:51;;;;;;;27.70;14.68;;;;;;;16.47;100.00;101903.34;4919450;29;20044;-74
2022/08/04 01:19:51;;;;;;;27.05;14.27;;;;;;;16.45;100.00;101902.66;4902124;29;20040;-75
2022/08/04 01:22:31;;;;;;;26.35;15.18;;;;;;;16.41;100.00;101903.03;4902208;29;20040;-75
2022/08/04 01:25:28;;;;;;;32.58;15.48;;;;;;;16.39;100.00;101905.06;4918813;29;20036;-75
2022/08/04 01:28:14;;;;;;;32.77;16.03;;;;;;;16.36;100.00;101900.03;4918280;29;20187;-75
2022/08/04 01:30:43;;;;;;;31.48;14.70;;;;;;;16.31;100.00;101893.50;4917767;29;20756;-76
2022/08/04 01:33:13;;;;;;;30.70;16.30;;;;;;;16.30;100.00;101895.34;4919731;29;20036;-73
2022/08/04 01:35:53;;;;;;;35.15;15.73;;;;;;;16.31;100.00;101901.56;4918115;29;20411;-73
2022/08/04 01:38:32;;;;;;;31.15;16.63;;;;;;;16.29;100.00;101899.03;4917947;29;20384;-75
2022/08/04 01:41:08;;;;;;;38.13;16.70;;;;;;;16.27;100.00;101889.47;4917884;29;20067;-77
2022/08/04 01:43:41;;;;;;;40.85;16.83;;;;;;;16.24;100.00;101887.97;4917737;29;20036;-74
2022/08/04 01:46:16;;;;;;;27.48;15.85;;;;;;;16.24;100.00;101896.03;4918111;29;20501;-75
2022/08/04 01:48:45;;;;;;;38.03;16.92;;;;;;;16.21;100.00;101895.53;4918647;29;20138;-73
2022/08/04 01:51:11;;;;;;;35.05;15.30;;;;;;;16.21;100.00;101895.53;4917798;29;20071;-73
2022/08/04 01:53:39;;;;;;;40.30;17.55;;;;;;;16.20;100.00;101892.03;4917752;29;20036;-76
2022/08/04 01:56:10;;;;;;;36.10;15.90;;;;;;;16.14;100.00;101886.47;4917903;29;20032;-75
2022/08/04 01:58:39;;;;;;;30.63;15.93;;;;;;;16.14;100.00;101894.53;4917834;29;20083;-75
2022/08/04 02:01:10;;;;;;;46.00;18.88;;;;;;;16.18;100.00;101903.91;4916666;29;20115;-74
2022/08/04 02:03:39;;;;;;;32.90;16.75;;;;;;;16.16;100.00;101898.72;4918345;29;20048;-74
2022/08/04 02:06:14;;;;;;;36.00;19.20;;;;;;;16.16;100.00;101897.88;4917654;29;20036;-76
2022/08/04 02:08:48;;;;;;;34.08;15.85;;;;;;;16.20;100.00;101904.63;4917750;29;20044;-74
2022/08/04 02:11:17;;;;;;;36.85;17.83;;;;;;;16.14;100.00;101898.06;4917868;29;20032;-75
2022/08/04 02:14:05;;;;;;;;;;;;;;;16.23;100.00;101902.44;4917576;29;20040;-75
2022/08/04 02:16:51;;;;;;;27.05;17.10;;;;;;;16.19;100.00;101909.16;4914923;29;19966;-74
2022/08/04 02:19:58;;;;;;;37.10;17.55;;;;;;;16.17;100.00;101900.41;4917389;29;20067;-75
2022/08/04 02:22:27;;;;;;;37.60;17.70;;;;;;;16.17;100.00;101905.78;4917066;29;20044;-76
2022/08/04 02:25:12;;;;;;;;;;;;;;;16.26;100.00;101910.16;4917471;29;20043;-74
2022/08/04 02:28:08;;;;;;;26.75;17.08;;;;;;;16.25;100.00;101911.16;4916579;29;19926;-76
2022/08/04 02:30:42;;;;;;;27.17;16.48;;;;;;;16.20;100.00;101905.47;4917327;29;20107;-75
2022/08/04 02:33:12;;;;;;;33.17;18.40;;;;;;;16.03;100.00;101876.94;4918051;29;20040;-75
2022/08/04 02:35:39;;;;;;;32.50;17.02;;;;;;;16.26;100.00;101910.16;4921202;29;20492;-74
2022/08/04 02:38:26;;;;;;;28.67;16.55;;;;;;;16.27;100.00;101906.44;4924953;29;20119;-74
2022/08/04 02:40:55;;;;;;;29.17;16.98;;;;;;;16.26;100.00;101902.06;4916106;29;20044;-75
2022/08/04 02:43:24;;;;;;;30.42;17.35;;;;;;;16.32;100.00;101909.44;4916684;29;20046;-76
2022/08/04 02:45:55;;;;;;;27.63;17.42;;;;;;;16.31;100.00;101910.47;4899741;29;20088;-74
2022/08/04 02:48:25;;;;;;;34.72;16.65;;;;;;;16.36;100.00;101909.94;4900463;29;20098;-74
2022/08/04 02:50:53;;;;;;;27.07;16.60;;;;;;;16.40;100.00;101905.88;4916818;29;20051;-75
2022/08/04 02:53:21;;;;;;;29.87;16.13;;;;;;;16.43;100.00;101909.06;4916800;29;20047;-75
2022/08/04 02:55:47;;;;;;;34.67;17.80;;;;;;;16.47;100.00;101908.72;4916448;29;20280;-75
2022/08/04 02:58:18;;;;;;;34.78;15.55;;;;;;;16.49;100.00;101907.56;4916467;29;20036;-76
2022/08/04 03:00:44;;;;;;;27.40;16.55;;;;;;;16.56;100.00;101905.84;4916754;29;20036;-75
2022/08/04 03:03:41;;;;;;;23.88;16.33;;;;;;;16.63;100.00;101905.97;4917975;29;20131;-76
2022/08/04 03:06:10;;;;;;;28.00;16.85;;;;;;;16.67;100.00;101901.94;4916448;29;20040;-75
2022/08/04 03:08:51;;;;;;;32.60;15.63;;;;;;;16.72;100.00;101910.34;4916501;29;20040;-76
2022/08/04 03:11:41;;;;;;;22.13;15.57;;;;;;;16.78;100.00;101904.28;4916646;29;20040;-75
2022/08/04 03:14:34;;;;;;;24.50;15.48;;;;;;;16.87;100.00;101910.44;4916661;29;20047;-74
2022/08/04 03:17:23;;;;;;;25.95;15.13;;;;;;;16.93;100.00;101912.44;4917125;29;20040;-74
2022/08/04 03:20:11;;;;;;;19.67;14.30;;;;;;;18.05;99.82;101914.47;4926487;29;20072;-74
2022/08/04 03:22:45;;;;;;;19.35;12.85;;;;;;;19.90;90.92;101911.28;4923024;29;20131;-74
2022/08/04 03:25:30;;;;;;;15.50;11.50;;;;;;;21.56;80.65;101912.91;4935436;29;20199;-71
2022/08/04 03:28:07;;;;;;;19.42;11.20;;;;;;;22.88;74.09;101899.16;4935700;29;20032;-73
2022/08/04 03:30:55;;;;;;;18.33;9.63;;;;;;;23.96;69.42;101910.75;4934217;29;20040;-74
2022/08/04 03:33:24;;;;;;;17.25;9.32;;;;;;;24.58;66.73;101908.91;4928254;29;20039;-72
2022/08/04 03:36:20;;;;;;;15.50;9.88;;;;;;;25.01;66.37;101906.06;4936102;29;20103;-73
2022/08/04 03:39:24;;;;;;;14.05;10.02;;;;;;;25.69;64.94;101912.19;4936426;29;20052;-74
2022/08/04 03:42:12;;;;;;;13.27;10.02;;;;;;;25.77;62.17;101914.59;4935308;29;20051;-74
2022/08/04 03:45:06;;;;;;;15.20;8.43;;;;;;;24.47;64.42;101900.63;4934929;29;20020;-73
2022/08/04 03:47:50;;;;;;;14.88;8.88;;;;;;;22.97;69.42;101903.28;4927812;29;20072;-74
2022/08/04 03:53:07;;;;;;;13.45;9.32;;;;;;;21.60;75.51;101908.75;4936232;29;20052;-74
2022/08/04 03:54:07;;;;;;;15.93;9.30;;;;;;;20.71;79.18;101904.31;4928731;29;20591;-75
2022/08/04 03:57:19;;;;;;;10.57;8.90;;;;;;;20.16;81.83;101905.25;4931432;29;20043;-75
2022/08/04 04:00:06;;;;;;;13.75;8.55;;;;;;;19.79;83.38;101903.72;4922265;29;20055;-74
2022/08/04 04:03:01;;;;;;;13.57;9.65;;;;;;;19.57;84.87;101902.06;4922388;29;20064;-75
2022/08/04 04:05:45;;;;;;;12.15;10.43;;;;;;;19.27;86.01;101904.88;4922382;29;20039;-75
2022/08/04 04:08:33;;;;;;;15.07;9.75;;;;;;;19.11;86.73;101900.56;4922348;29;20047;-75
2022/08/04 04:11:10;;;;;;;;;;;;;;;19.20;86.45;101903.97;4922971;29;20044;-76
2022/08/04 04:14:00;;;;;;;15.10;9.82;;;;;;;19.29;86.59;101897.41;4922420;29;20452;-73
2022/08/04 04:17:03;;;;;;;13.07;10.38;;;;;;;19.43;85.87;101899.22;4922440;29;20032;-73
2022/08/04 04:19:51;;;;;;;14.65;10.00;;;;;;;19.51;85.83;101900.97;4922935;29;20139;-75
2022/08/04 04:22:20;;;;;;;16.63;10.65;;;;;;;19.91;83.76;101904.84;4922824;29;20048;-75
2022/08/04 04:25:04;;;;;;;13.13;10.10;;;;;;;20.04;83.09;101907.66;4922146;29;20106;-75
2022/08/04 04:27:39;;;;;;;13.38;10.27;;;;;;;19.75;84.02;101911.41;4922303;29;20051;-75
2022/08/04 04:30:30;;;;;;;11.88;9.52;;;;;;;19.47;85.13;101914.03;4922386;29;20041;-75
2022/08/04 04:33:09;;;;;;;13.15;10.77;;;;;;;19.21;86.45;101911.03;4922461;29;20488;-73
2022/08/04 04:35:40;;;;;;;12.77;10.18;;;;;;;19.01;87.10;101913.50;4922407;29;20054;-76
2022/08/04 04:38:33;;;;;;;14.45;9.82;;;;;;;18.99;87.54;101922.84;4921838;29;20040;-75
2022/08/04 04:41:16;;;;;;;17.52;10.40;;;;;;;18.96;88.01;101917.81;4921996;29;20036;-76
2022/08/04 04:43:44;;;;;;;12.95;9.75;;;;;;;19.60;85.68;101929.53;4922018;29;20048;-76
2022/08/04 04:46:28;;;;;;;10.75;7.90;;;;;;;19.74;84.80;101922.41;4921813;29;20064;-75
2022/08/04 04:49:11;;;;;;;14.38;9.48;;;;;;;19.63;85.34;101928.31;4922225;29;20056;-75
2022/08/04 04:52:03;;;;;;;11.40;8.38;;;;;;;19.44;86.02;101930.63;4921927;29;20086;-74
2022/08/04 04:54:37;;;;;;;9.60;7.15;;;;;;;20.07;83.87;101937.03;4921684;29;20083;-75
2022/08/04 04:57:21;;;;;;;11.27;8.43;;;;;;;22.18;76.42;101934.22;4921535;29;20051;-75
2022/08/04 04:59:57;;;;;;;9.98;7.88;;;;;;;23.87;69.18;101933.03;4921866;29;20028;-75
2022/08/04 05:02:53;;;;;;;9.52;6.53;;;;;;;25.25;64.85;101947.03;4921968;29;20058;-74
2022/08/04 05:05:37;;;;;;;11.20;6.47;;;;;;;26.16;59.85;101945.81;4917819;29;20051;-74
2022/08/04 05:08:12;;;;;;;16.25;5.50;;;;;;;26.51;57.58;101948.53;4918693;29;20035;-74
2022/08/04 05:11:03;;;;;;;8.80;4.95;;;;;;;26.54;57.85;101945.34;4918644;29;20517;-75
2022/08/04 05:13:35;;;;;;;11.65;8.02;;;;;;;26.18;57.97;101917.22;4925194;29;20130;-75
2022/08/04 05:16:23;;;;;;;12.52;6.40;;;;;;;25.32;60.83;101947.78;4923161;29;20399;-74
2022/08/04 05:19:00;;;;;;;7.03;5.43;;;;;;;23.76;65.62;101942.75;4939393;29;20016;-71
2022/08/04 05:21:51;;;;;;;12.40;6.55;;;;;;;22.55;69.98;101950.84;4939943;29;20087;-74
2022/08/04 05:24:24;;;;;;;11.60;5.90;;;;;;;21.78;73.67;101948.81;4919095;29;20496;-74
2022/08/04 05:26:54;;;;;;;7.35;5.85;;;;;;;21.34;75.45;101948.31;4918680;29;20031;-74
2022/08/04 05:29:51;;;;;;;11.02;5.20;;;;;;;21.10;75.49;101946.13;4918596;29;20040;-75
2022/08/04 05:32:22;;;;;;;6.37;4.73;;;;;;;20.93;76.73;101950.25;4922160;29;20040;-75
2022/08/04 05:35:14;;;;;;;7.00;4.50;;;;;;;20.87;77.25;101945.66;4918083;29;20088;-74
2022/08/04 05:37:42;;;;;;;7.90;4.57;;;;;;;20.83;77.33;101944.38;4911889;29;20083;-76
2022/08/04 05:40:09;;;;;;;7.68;5.00;;;;;;;20.82;77.40;101942.72;4918621;29;20047;-73
2022/08/04 05:42:38;;;;;;;;;;;;;;;20.91;77.33;101947.75;4918306;29;20133;-74
2022/08/04 05:45:06;;;;;;;10.98;5.80;;;;;;;20.86;76.52;101944.81;4918855;29;19919;-75
2022/08/04 05:47:34;;;;;;;6.57;4.03;;;;;;;20.73;76.41;101932.03;4918228;29;20072;-75
2022/08/04 05:50:01;;;;;;;11.15;4.03;;;;;;;20.90;75.68;101956.91;4918160;29;20527;-75
2022/08/04 05:52:30;;;;;;;4.38;2.72;;;;;;;20.96;71.61;101955.25;4917708;29;20078;-75
2022/08/04 05:54:57;;;;;;;7.55;3.35;;;;;;;21.02;70.81;101943.59;4901074;29;20048;-75
2022/08/04 05:57:24;;;;;;;4.90;3.47;;;;;;;21.05;72.74;101948.63;4917535;29;20044;-75
2022/08/04 05:59:51;;;;;;;5.60;4.30;;;;;;;21.14;72.08;101960.13;4917791;29;20047;-73
2022/08/04 06:02:18;;;;;;;6.57;3.50;;;;;;;21.13;72.05;101958.47;4917767;29;20187;-72
2022/08/04 06:04:47;;;;;;;6.55;3.45;;;;;;;21.17;70.18;101957.00;4917647;29;20079;-75
2022/08/04 06:07:13;;;;;;;4.57;3.30;;;;;;;21.20;69.26;101945.75;4917553;29;20043;-74
2022/08/04 06:09:40;;;;;;;5.93;2.97;;;;;;;21.28;68.91;101953.72;4917430;29;20393;-74
2022/08/04 06:12:09;;;;;;;7.13;2.80;;;;;;;21.38;66.52;101959.59;4917394;29;20393;-74
2022/08/04 06:14:40;;;;;;;4.97;3.22;;;;;;;21.46;65.01;101945.03;4917644;29;20036;-75
2022/08/04 06:17:08;;;;;;;5.43;2.50;;;;;;;21.51;64.63;101953.38;4918250;29;20039;-74
2022/08/04 06:19:36;;;;;;;4.13;2.63;;;;;;;21.58;64.89;101955.03;4918048;29;20488;-75
2022/08/04 06:22:04;;;;;;;5.50;2.33;;;;;;;21.59;63.50;101950.44;4917170;29;20515;-74
2022/08/04 06:24:57;;;;;;;3.95;2.58;;;;;;;21.48;63.60;101922.09;4917659;29;20119;-74
2022/08/04 06:27:23;;;;;;;4.30;2.05;;;;;;;21.79;63.03;101962.16;4917726;29;20079;-75
2022/08/04 06:29:51;;;;;;;3.10;2.40;;;;;;;21.82;61.36;101955.50;4917224;29;20123;-75
2022/08/04 06:32:35;;;;;;;9.98;1.95;;;;;;;21.87;61.06;101959.25;4917420;29;20036;-71
2022/08/04 06:35:03;;;;;;;5.25;2.22;;;;;;;21.88;60.86;101960.91;4917592;29;20083;-77
2022/08/04 06:37:31;;;;;;;7.60;2.17;;;;;;;21.82;61.41;101947.34;4917179;29;20099;-73
2022/08/04 06:39:59;;;;;;;8.27;3.17;;;;;;;21.93;60.83;101968.41;4916847;29;20040;-72
2022/08/04 06:42:30;;;;;;;20.42;4.18;;;;;;;21.95;59.96;101961.72;4916920;29;20071;-71
2022/08/04 06:44:58;;;;;;;5.00;1.95;;;;;;;22.02;61.18;101966.34;4916968;29;20457;-72
2022/08/04 06:47:26;;;;;;;6.63;1.92;;;;;;;22.06;61.63;101971.19;4918118;29;20496;-75
2022/08/04 06:50:23;;;;;;;4.13;1.75;;;;;;;22.07;61.46;101974.72;4917826;29;20055;-78
2022/08/04 06:52:49;;;;;;;8.60;2.28;;;;;;;21.94;60.71;101954.63;4917788;29;20044;-80
2022/08/04 06:55:35;;;;;;;26.42;4.20;;;;;;;22.12;61.96;101967.63;4917675;29;20460;-78
2022/08/04 06:58:01;;;;;;;10.05;3.30;;;;;;;22.14;61.71;101965.53;4879346;29;20055;-76
2022/08/04 07:00:28;;;;;;;6.53;2.33;;;;;;;22.24;62.01;101975.94;4918093;29;20051;-74
2022/08/04 07:02:54;;;;;;;12.90;3.15;;;;;;;22.21;62.24;101966.34;4918587;29;20044;-75
2022/08/04 07:05:22;;;;;;;10.38;2.50;;;;;;;22.28;62.05;101970.97;4917768;29;20064;-77
2022/08/04 07:07:48;;;;;;;12.68;2.35;;;;;;;22.27;60.34;101963.88;4900145;29;20139;-73
2022/08/04 07:10:15;;;;;;;8.27;2.70;;;;;;;22.32;60.41;101967.59;4917030;29;20112;-76
2022/08/04 07:12:42;;;;;;;5.85;2.70;;;;;;;22.34;60.18;101953.81;4899608;29;20131;-73
2022/08/04 07:15:10;;;;;;;19.00;3.70;;;;;;;22.44;60.66;101965.91;4916555;29;20091;-75
2022/08/04 07:17:36;;;;;;;5.18;2.40;;;;;;;22.50;59.56;101967.75;4899418;29;20036;-77
2022/08/04 07:20:05;;;;;;;7.05;2.35;;;;;;;22.48;59.89;101967.16;4916388;29;20044;-76
2022/08/04 07:22:31;;;;;;;6.20;2.45;;;;;;;22.51;59.33;101971.31;4899122;29;20028;-77
2022/08/04 07:24:58;;;;;;;16.45;3.42;;;;;;;22.52;60.57;101976.53;4916331;29;20047;-73
2022/08/04 07:27:25;;;;;;;8.43;2.15;;;;;;;22.51;59.94;101972.16;4915446;29;20046;-74
2022/08/04 07:29:51;;;;;;;4.95;1.85;;;;;;;22.51;58.80;101965.88;4916045;29;20055;-74
2022/08/04 07:32:20;;;;;;;12.93;2.55;;;;;;;22.59;59.69;101975.69;4916132;29;20028;-73
2022/08/04 07:34:48;;;;;;;8.13;2.28;;;;;;;22.71;60.50;101979.41;4916811;29;20028;-69
2022/08/04 07:37:14;;;;;;;22.83;3.55;;;;;;;22.74;59.18;101971.66;4923580;29;20036;-71
2022/08/04 07:39:39;;;;;;;6.85;2.25;;;;;;;22.85;59.37;101972.94;4921816;29;20036;-72
2022/08/04 07:42:05;;;;;;;3.92;2.80;;;;;;;22.89;58.57;101979.59;4925872;29;20078;-74
2022/08/04 07:44:32;;;;;;;8.48;2.38;;;;;;;22.91;59.57;101977.50;4925262;29;20092;-74
2022/08/04 07:47:00;;;;;;;6.35;2.00;;;;;;;22.92;56.85;101984.63;4920188;29;20525;-74
2022/08/04 07:49:26;;;;;;;3.63;2.05;;;;;;;22.94;56.33;101976.25;4899021;29;20051;-75
2022/08/04 07:51:53;;;;;;;5.18;1.85;;;;;;;22.95;55.34;101976.03;4916459;29;20051;-73
2022/08/04 07:54:19;;;;;;;3.65;1.95;;;;;;;22.91;56.34;101965.81;4916705;29;20040;-75
2022/08/04 07:56:47;;;;;;;5.90;2.28;;;;;;;23.06;57.40;101983.50;4916104;29;20496;-74
2022/08/04 07:59:16;;;;;;;17.40;2.42;;;;;;;23.06;57.14;101979.94;4915933;29;20381;-79
2022/08/04 08:01:42;;;;;;;7.15;2.20;;;;;;;22.90;57.31;101954.13;4916056;29;20475;-76
2022/08/04 08:04:10;;;;;;;5.45;3.00;;;;;;;23.10;55.68;101982.00;4916336;29;20075;-75
2022/08/04 08:06:37;;;;;;;3.20;1.58;;;;;;;23.16;55.60;101978.44;4917172;29;20053;-76
2022/08/04 08:09:13;;;;;;;3.70;2.13;;;;;;;23.21;56.63;101979.69;4919719;29;20515;-78
2022/08/04 08:11:50;;;;;;;5.63;2.30;;;;;;;23.13;57.14;101981.59;4925218;29;20051;-75
2022/08/04 08:14:17;;;;;;;10.13;3.80;;;;;;;23.14;58.01;101977.84;4925210;29;20036;-75
2022/08/04 08:16:43;;;;;;;22.58;3.45;;;;;;;23.22;58.72;101975.91;4924524;29;20076;-74
2022/08/04 08:19:10;;;;;;;4.75;2.50;;;;;;;23.28;57.78;101975.03;4931399;29;20060;-80
2022/08/04 08:21:35;;;;;;;16.30;3.13;;;;;;;23.29;58.35;101974.81;4921823;29;20476;-81
2022/08/04 08:27:38;;;;;;;21.35;3.33;;;;;;;23.21;56.02;101949.78;4901933;29;20060;-78
2022/08/04 08:33:39;;;;;;;12.13;2.78;;;;;;;23.22;56.55;101951.44;4916331;29;20052;-77
2022/08/04 08:36:23;;;;;;;4.57;2.25;;;;;;;23.37;56.91;101971.00;4915816;29;20040;-76
2022/08/04 08:39:12;;;;;;;3.83;1.95;;;;;;;23.42;55.87;101969.31;4915787;29;20500;-77
2022/08/04 08:42:11;;;;;;;3.60;2.00;;;;;;;23.47;56.14;101961.34;4919173;29;20044;-76
2022/08/04 08:45:03;;;;;;;4.75;2.13;;;;;;;23.49;54.44;101952.97;4919268;29;20043;-74
2022/08/04 08:47:42;;;;;;;12.50;3.10;;;;;;;23.60;54.67;101955.00;4919330;29;20056;-77
2022/08/04 08:50:35;;;;;;;8.45;2.22;;;;;;;23.64;55.02;101961.66;4920600;29;20058;-75
2022/08/04 08:53:07;;;;;;;15.10;2.45;;;;;;;23.62;54.42;101957.50;4918024;29;20028;-74
2022/08/04 08:55:53;;;;;;;3.17;1.63;;;;;;;23.65;53.97;101955.16;4919334;29;20040;-74
2022/08/04 08:58:31;;;;;;;6.20;2.20;;;;;;;23.72;53.91;101958.69;4919513;29;20050;-77
2022/08/04 09:01:15;;;;;;;9.57;4.10;;;;;;;23.77;54.41;101955.31;4921141;29;20412;-80
2022/08/04 09:04:08;;;;;;;7.00;2.13;;;;;;;23.87;52.60;101952.91;4919592;29;20523;-80
2022/08/04 09:06:49;;;;;;;4.18;2.47;;;;;;;23.97;52.61;101950.50;4918318;29;20040;-75
2022/08/04 09:09:48;;;;;;;3.00;2.25;;;;;;;24.08;52.08;101952.53;4918913;29;20043;-76
2022/08/04 09:12:27;;;;;;;8.50;2.95;;;;;;;24.07;52.48;101955.47;4918570;29;20096;-76
2022/08/04 09:15:07;;;;;;;5.20;2.13;;;;;;;24.10;52.78;101947.69;4918489;29;20408;-74
2022/08/04 09:17:41;;;;;;;3.30;2.05;;;;;;;24.15;52.18;101944.28;4918478;29;20476;-74
2022/08/04 09:20:36;;;;;;;7.57;2.58;;;;;;;24.24;51.91;101940.22;4918610;29;20092;-72
2022/08/04 09:23:17;;;;;;;3.47;2.33;;;;;;;24.36;51.21;101946.63;4920465;29;20572;-74
2022/08/04 09:25:51;;;;;;;15.70;1.92;;;;;;;24.37;50.98;101951.03;4922027;29;20039;-74
2022/08/04 09:28:25;;;;;;;16.95;2.75;;;;;;;24.40;51.28;101939.66;4924226;29;20036;-74
2022/08/04 09:31:29;;;;;;;16.40;3.35;;;;;;;24.47;52.10;101953.22;4919479;29;20550;-71
2022/08/04 09:34:22;;;;;;;5.93;2.13;;;;;;;24.51;51.75;101946.25;4918010;29;20048;-77
2022/08/04 09:36:55;;;;;;;8.25;2.53;;;;;;;24.63;50.98;101949.06;4918098;29;20154;-73
2022/08/04 09:39:49;;;;;;;15.90;2.83;;;;;;;24.74;51.97;101942.84;4918328;29;20058;-73
2022/08/04 09:42:21;;;;;;;11.45;2.42;;;;;;;24.78;51.39;101941.31;4920495;29;20480;-76
2022/08/04 09:45:15;;;;;;;8.40;2.00;;;;;;;24.82;52.52;101945.25;4916698;29;20048;-78
2022/08/04 09:47:51;;;;;;;3.00;2.10;;;;;;;24.93;51.46;101939.06;4918203;29;20420;-78
2022/08/04 09:50:36;;;;;;;9.07;2.40;;;;;;;24.89;52.24;101929.69;4918162;29;20469;-77
2022/08/04 09:53:38;;;;;;;5.47;1.92;;;;;;;24.71;51.16;101897.00;4901838;29;20028;-74
2022/08/04 10:00:04;;;;;;;1.88;1.60;;;;;;;24.86;50.51;101932.84;4918033;29;20523;-77
2022/08/04 10:02:35;;;;;;;7.32;2.45;;;;;;;24.83;50.86;101933.28;4917487;29;20480;-76
2022/08/04 10:05:11;;;;;;;3.42;1.85;;;;;;;24.77;50.67;101922.50;4917821;29;20042;-77
2022/08/04 10:07:47;;;;;;;2.20;2.00;;;;;;;24.82;50.54;101931.63;4918761;29;20135;-75
2022/08/04 10:10:58;;;;;;;9.80;2.35;;;;;;;24.90;49.76;101934.06;4917404;29;20508;-75
2022/08/04 10:14:04;;;;;;;20.40;3.67;;;;;;;24.98;49.09;101947.41;4918004;29;20047;-83
2022/08/04 10:17:00;;;;;;;6.80;1.67;;;;;;;24.92;47.49;101934.66;4884546;29;20511;-75
2022/08/04 10:19:36;;;;;;;10.80;2.25;;;;;;;24.88;47.57;101936.19;4917971;29;20040;-77
2022/08/04 10:22:08;;;;;;;5.88;1.90;;;;;;;24.98;47.94;101925.59;4917332;29;20028;-76
2022/08/04 10:24:55;;;;;;;8.93;2.10;;;;;;;25.11;48.05;101930.03;4916967;29;20046;-78
2022/08/04 10:27:35;;;;;;;4.03;2.10;;;;;;;25.14;47.13;101929.56;4917180;29;20039;-78
2022/08/04 10:30:10;;;;;;;4.32;1.80;;;;;;;25.11;46.35;101934.63;4917151;29;20063;-75
2022/08/04 10:32:54;;;;;;;6.65;1.65;;;;;;;25.22;47.18;101931.16;4917246;29;20532;-75
2022/08/04 10:35:23;;;;;;;3.90;1.77;;;;;;;25.35;46.83;101936.41;4918253;29;20531;-74
2022/08/04 10:38:36;;;;;;;6.88;1.90;;;;;;;25.33;47.13;101919.44;4899993;29;20148;-76
2022/08/04 10:41:12;;;;;;;2.95;1.60;;;;;;;25.40;46.13;101941.97;4883951;29;20036;-78
2022/08/04 10:44:24;;;;;;;8.77;1.67;;;;;;;25.42;46.73;101937.13;4916095;29;20060;-79
2022/08/04 10:46:56;;;;;;;4.40;1.70;;;;;;;25.40;46.67;101939.25;4848841;29;20060;-75
2022/08/04 10:50:11;;;;;;;2.33;1.77;;;;;;;25.47;46.32;101937.28;4915283;29;20516;-78
2022/08/04 10:53:12;;;;;;;9.07;1.98;;;;;;;25.54;46.82;101940.72;4916612;29;20568;-76
2022/08/04 10:55:53;;;;;;;9.05;2.10;;;;;;;25.48;46.74;101902.66;4900925;29;20110;-76
2022/08/04 10:58:26;;;;;;;6.47;2.75;;;;;;;25.38;46.01;101891.47;4917263;29;20032;-76
2022/08/04 11:00:56;;;;;;;19.45;3.42;;;;;;;25.70;47.44;101933.78;4916402;29;20032;-75
2022/08/04 11:03:40;;;;;;;7.47;1.95;;;;;;;25.71;47.61;101937.34;4915709;29;20524;-76
2022/08/04 11:06:05;;;;;;;7.53;1.80;;;;;;;25.70;47.47;101932.94;4916729;29;20036;-77
2022/08/04 11:08:47;;;;;;;8.55;1.95;;;;;;;25.70;47.24;101928.31;4915456;29;20047;-76
2022/08/04 11:11:19;;;;;;;3.53;2.30;;;;;;;25.72;47.85;101931.66;4916070;29;20032;-78
2022/08/04 11:13:56;;;;;;;2.55;1.65;;;;;;;25.70;46.83;101930.22;4915916;29;20055;-78
2022/08/04 11:16:28;;;;;;;5.85;1.60;;;;;;;25.64;47.31;101924.63;4916245;29;20131;-74
2022/08/04 11:19:08;;;;;;;2.63;1.95;;;;;;;25.68;46.63;101937.81;4916375;29;20526;-77
2022/08/04 11:21:42;;;;;;;5.93;2.42;;;;;;;25.61;45.90;101924.25;4916255;29;20550;-74
2022/08/04 11:24:17;;;;;;;5.72;2.03;;;;;;;25.67;46.35;101938.88;4915848;29;20120;-75
2022/08/04 11:26:51;;;;;;;12.35;2.58;;;;;;;25.73;46.49;101932.47;4916358;29;20051;-74
2022/08/04 11:29:27;;;;;;;5.93;2.53;;;;;;;25.68;47.14;101910.53;4916395;29;20187;-72
2022/08/04 11:31:58;;;;;;;6.88;3.08;;;;;;;25.76;46.23;101915.66;4916011;29;20036;-74
2022/08/04 11:34:25;;;;;;;14.20;1.98;;;;;;;25.75;46.05;101919.47;4916069;29;20048;-74
2022/08/04 11:37:20;;;;;;;4.28;2.00;;;;;;;25.77;45.97;101918.16;4916241;29;20047;-78
2022/08/04 11:39:59;;;;;;;4.72;1.88;;;;;;;25.76;46.05;101926.56;4916039;29;20040;-76
2022/08/04 11:42:26;;;;;;;8.85;2.65;;;;;;;25.74;46.48;101924.09;4915976;29;20393;-75
2022/08/04 11:45:03;;;;;;;10.77;2.72;;;;;;;25.72;45.75;101920.72;4917162;29;20036;-75
2022/08/04 11:47:40;;;;;;;11.60;2.60;;;;;;;25.60;45.99;101907.06;4916780;29;20063;-79
2022/08/04 11:50:19;;;;;;;64.57;6.97;;;;;;;25.70;47.31;101916.59;4916152;29;20058;-71
2022/08/04 11:52:45;;;;;;;5.57;2.28;;;;;;;25.72;46.62;101925.38;4919877;29;20051;-73
2022/08/04 11:55:15;;;;;;;26.63;5.97;;;;;;;25.74;47.14;101909.63;4915738;29;20043;-72
2022/08/04 11:57:42;;;;;;;20.13;3.72;;;;;;;25.78;46.77;101913.53;4915579;29;20104;-76
2022/08/04 12:00:11;;;;;;;7.00;2.45;;;;;;;25.75;46.22;101914.00;4916264;29;20084;-71
2022/08/04 12:03:03;;;;;;;6.93;1.98;;;;;;;25.72;46.56;101919.91;4915595;29;20055;-72
2022/08/04 12:05:34;;;;;;;3.50;2.08;;;;;;;25.68;47.08;101911.34;4915684;29;20032;-70
2022/08/04 12:08:15;;;;;;;12.95;3.20;;;;;;;25.75;46.70;101912.09;4898181;29;20504;-69
2022/08/04 12:10:49;;;;;;;3.88;1.67;;;;;;;25.74;45.83;101905.00;4915603;29;20028;-71
2022/08/04 12:13:35;;;;;;;5.50;1.60;;;;;;;25.83;46.01;101909.03;4916644;29;20064;-69
2022/08/04 12:16:01;;;;;;;14.07;2.35;;;;;;;25.82;46.40;101904.63;4919352;29;20432;-71
2022/08/04 12:18:35;;;;;;;2.08;1.65;;;;;;;25.76;46.24;101908.31;4919048;29;20039;-69